Time;durP1;ratioP1;P1;durP2;ratioP2;P2;SDS_P1;SDS_P2;PMS_P1;PMS_P2;Temp;Humidity;BMP_temperature;BMP_pressure;BME280_temperature;BME280_humidity;BME280_pressure;Samples;Min_cycle;Max_cycle;Signal;HPM_P1;HPM_P2
2021/06/12 00:00:12;;;;;;;6.27;5.67;;;;;;;-139.38;100.00;63230.50;5027996;28;20286;-75
2021/06/12 00:02:39;;;;;;;6.77;6.07;;;;;;;-139.38;100.00;63230.50;5029525;28;20225;-76
2021/06/12 00:05:07;;;;;;;7.97;5.40;;;;;;;-139.38;100.00;63230.50;5028771;28;20631;-76
2021/06/12 00:07:34;;;;;;;6.77;5.70;;;;;;;-139.38;100.00;63230.50;5030889;28;20569;-76
2021/06/12 00:10:01;;;;;;;6.20;5.60;;;;;;;-139.38;100.00;63230.50;5028787;28;20229;-76
2021/06/12 00:12:28;;;;;;;7.60;6.17;;;;;;;-139.38;100.00;63230.50;5028855;28;20259;-76
2021/06/12 00:14:55;;;;;;;5.90;5.30;;;;;;;-139.38;100.00;63230.50;5029421;28;20355;-75
2021/06/12 00:17:23;;;;;;;6.83;5.53;;;;;;;-139.38;100.00;63230.50;5029673;28;20584;-76
2021/06/12 00:19:50;;;;;;;6.93;5.93;;;;;;;-139.38;100.00;63230.50;5028996;28;20209;-75
2021/06/12 00:22:17;;;;;;;7.23;5.67;;;;;;;-139.38;100.00;63230.50;5029681;28;20229;-76
2021/06/12 00:24:44;;;;;;;6.77;5.87;;;;;;;-139.38;100.00;63230.50;5030186;28;20563;-76
2021/06/12 00:27:12;;;;;;;6.93;6.10;;;;;;;-139.38;100.00;63230.50;5030917;28;20209;-76
2021/06/12 00:29:39;;;;;;;6.63;6.03;;;;;;;-139.38;100.00;63230.50;5029792;28;20232;-76
2021/06/12 00:32:06;;;;;;;9.37;5.80;;;;;;;-139.38;100.00;63230.50;5029297;28;20223;-76
2021/06/12 00:34:35;;;;;;;6.83;5.23;;;;;;;-139.38;100.00;63230.50;5028614;28;20224;-76
2021/06/12 00:37:01;;;;;;;6.20;5.30;;;;;;;-139.38;100.00;63230.50;5029416;28;20205;-76
2021/06/12 00:39:28;;;;;;;6.67;5.93;;;;;;;-139.38;100.00;63230.50;5029689;28;20734;-76
2021/06/12 00:41:55;;;;;;;6.53;5.53;;;;;;;-139.38;100.00;63230.50;5026385;28;59086;-76
2021/06/12 00:44:22;;;;;;;8.77;6.50;;;;;;;-139.38;100.00;63230.50;5027493;28;20223;-76
2021/06/12 00:46:48;;;;;;;9.90;6.10;;;;;;;-139.38;100.00;63230.50;5030509;28;20207;-76
2021/06/12 00:49:15;;;;;;;7.00;6.30;;;;;;;-139.38;100.00;63230.50;5029649;28;20505;-75
2021/06/12 00:51:43;;;;;;;6.87;5.97;;;;;;;-139.38;100.00;63230.50;5028882;28;20232;-78
2021/06/12 00:54:10;;;;;;;7.40;5.70;;;;;;;-139.38;100.00;63230.50;5030372;28;20210;-77
2021/06/12 00:56:37;;;;;;;6.53;5.83;;;;;;;-139.38;100.00;63230.50;5030527;28;20208;-77
2021/06/12 00:59:04;;;;;;;6.90;6.20;;;;;;;-139.38;100.00;63230.50;5030462;28;20571;-77
2021/06/12 01:01:31;;;;;;;7.57;6.30;;;;;;;-139.38;100.00;63230.50;5029847;28;20303;-78
2021/06/12 01:03:58;;;;;;;8.10;5.87;;;;;;;-139.38;100.00;63230.50;5028871;28;20610;-77
2021/06/12 01:06:25;;;;;;;7.37;6.50;;;;;;;-139.38;100.00;63230.50;5026394;28;20214;-77
2021/06/12 01:08:53;;;;;;;9.23;6.30;;;;;;;-139.38;100.00;63230.50;5030911;28;20216;-77
2021/06/12 01:11:20;;;;;;;6.63;5.93;;;;;;;-139.38;100.00;63230.50;5026387;28;20252;-77
2021/06/12 01:13:54;;;;;;;7.57;6.10;;;;;;;-139.38;100.00;63230.50;5029736;28;20212;-77
2021/06/12 01:16:26;;;;;;;6.77;5.90;;;;;;;-139.38;100.00;63230.50;5030910;28;20205;-76
2021/06/12 01:18:53;;;;;;;8.07;6.60;;;;;;;-139.38;100.00;63230.50;5023710;28;20216;-76
2021/06/12 01:21:27;;;;;;;7.27;6.10;;;;;;;-139.38;100.00;63230.50;5029574;28;20222;-76
2021/06/12 01:24:30;;;;;;;7.43;5.93;;;;;;;-139.38;100.00;63230.50;5023842;28;20216;-76
2021/06/12 01:27:38;;;;;;;7.13;6.27;;;;;;;-139.38;100.00;63230.50;5029440;28;20570;-76
2021/06/12 01:30:10;;;;;;;7.43;6.53;;;;;;;-139.38;100.00;63230.50;4980330;28;20235;-77
2021/06/12 01:32:39;;;;;;;11.50;7.00;;;;;;;-139.38;100.00;63230.50;5028373;28;20243;-76
2021/06/12 01:35:09;;;;;;;7.57;6.67;;;;;;;-139.38;100.00;63230.50;5025388;28;21089;-77
2021/06/12 01:37:39;;;;;;;7.67;6.30;;;;;;;-139.38;100.00;63230.50;5029459;28;20770;-77
2021/06/12 01:40:07;;;;;;;7.13;6.33;;;;;;;-139.38;100.00;63230.50;5028705;28;20200;-77
2021/06/12 01:42:35;;;;;;;6.47;5.80;;;;;;;-139.38;100.00;63230.50;5029689;28;20237;-77
2021/06/12 01:45:02;;;;;;;10.43;7.43;;;;;;;-139.38;100.00;63230.50;5029474;28;20205;-77
2021/06/12 01:47:32;;;;;;;7.93;7.13;;;;;;;-139.38;100.00;63230.50;5030120;28;20250;-77
2021/06/12 01:49:59;;;;;;;8.23;7.10;;;;;;;-139.38;100.00;63230.50;5028666;28;20722;-77
2021/06/12 01:52:27;;;;;;;8.37;6.50;;;;;;;-139.38;100.00;63230.50;5027880;28;20252;-77
2021/06/12 01:54:56;;;;;;;7.40;6.33;;;;;;;-139.38;100.00;63230.50;5029131;28;20304;-77
2021/06/12 01:57:24;;;;;;;10.40;6.70;;;;;;;-139.38;100.00;63230.50;5027550;28;20219;-77
2021/06/12 01:59:52;;;;;;;9.37;6.80;;;;;;;-139.38;100.00;63230.50;5027192;28;20241;-77
2021/06/12 02:02:20;;;;;;;7.63;6.87;;;;;;;-139.38;100.00;63230.50;5030180;28;20231;-77
2021/06/12 02:04:50;;;;;;;8.77;7.10;;;;;;;-139.38;100.00;63230.50;5028796;28;20206;-77
2021/06/12 02:07:17;;;;;;;6.93;6.27;;;;;;;-139.38;100.00;63230.50;5025982;28;20677;-77
2021/06/12 02:09:46;;;;;;;10.40;6.73;;;;;;;-139.38;100.00;63230.50;5027907;28;20231;-76
2021/06/12 02:12:14;;;;;;;7.63;6.73;;;;;;;-139.38;100.00;63230.50;5029366;28;20235;-76
2021/06/12 02:14:41;;;;;;;8.43;7.10;;;;;;;-139.38;100.00;63230.50;5029521;28;20203;-76
2021/06/12 02:17:09;;;;;;;8.73;7.50;;;;;;;-139.38;100.00;63230.50;5029425;28;20215;-76
2021/06/12 02:19:36;;;;;;;7.80;6.97;;;;;;;-139.38;100.00;63230.50;5027474;28;20208;-76
2021/06/12 02:22:05;;;;;;;8.57;7.67;;;;;;;-139.38;100.00;63230.50;5029692;28;20228;-76
2021/06/12 02:24:32;;;;;;;9.57;7.00;;;;;;;-139.38;100.00;63230.50;5030499;28;20208;-76
2021/06/12 02:26:59;;;;;;;8.87;6.77;;;;;;;-139.38;100.00;63230.50;5033692;28;20298;-76
2021/06/12 02:29:27;;;;;;;7.97;7.17;;;;;;;-139.38;100.00;63230.50;5033359;28;20212;-76
2021/06/12 02:32:02;;;;;;;12.83;7.63;;;;;;;-139.38;100.00;63230.50;5032455;28;20221;-76
2021/06/12 02:34:30;;;;;;;8.60;7.03;;;;;;;-139.38;100.00;63230.50;5032235;28;20207;-76
2021/06/12 02:36:56;;;;;;;9.37;7.33;;;;;;;-139.38;100.00;63230.50;5033372;28;20281;-77
2021/06/12 02:39:24;;;;;;;8.27;7.40;;;;;;;-139.38;100.00;63230.50;5032785;28;20208;-76
2021/06/12 02:41:51;;;;;;;9.60;7.40;;;;;;;-139.38;100.00;63230.50;5030382;28;20235;-78
2021/06/12 02:44:18;;;;;;;7.73;6.93;;;;;;;-139.38;100.00;63230.50;5033115;28;20744;-78
2021/06/12 02:46:46;;;;;;;8.23;7.30;;;;;;;-139.38;100.00;63230.50;5032731;28;20234;-77
2021/06/12 02:49:14;;;;;;;7.93;7.13;;;;;;;-139.38;100.00;63230.50;5032608;28;20213;-78
2021/06/12 02:51:44;;;;;;;9.17;7.80;;;;;;;-139.38;100.00;63230.50;5033502;28;20690;-77
2021/06/12 02:54:13;;;;;;;8.17;7.33;;;;;;;-139.38;100.00;63230.50;5032832;28;20217;-77
2021/06/12 02:56:41;;;;;;;8.30;7.50;;;;;;;-139.38;100.00;63230.50;5035817;28;20203;-77
2021/06/12 02:59:11;;;;;;;9.07;7.77;;;;;;;-139.38;100.00;63230.50;5039325;28;20270;-77
2021/06/12 03:01:38;;;;;;;9.10;7.27;;;;;;;-139.38;100.00;63230.50;5034373;28;20227;-77
2021/06/12 03:04:05;;;;;;;9.30;7.93;;;;;;;-139.38;100.00;63230.50;5032591;28;20573;-77
2021/06/12 03:06:32;;;;;;;9.17;7.60;;;;;;;-139.38;100.00;63230.50;5032495;28;20214;-76
2021/06/12 03:08:59;;;;;;;10.03;7.90;;;;;;;-139.38;100.00;63230.50;5032888;28;20210;-76
2021/06/12 03:11:28;;;;;;;8.23;7.43;;;;;;;-139.38;100.00;63230.50;5031325;28;20233;-76
2021/06/12 03:13:57;;;;;;;12.27;7.50;;;;;;;-139.38;100.00;63230.50;5033319;28;20207;-77
2021/06/12 03:16:25;;;;;;;8.60;7.53;;;;;;;-139.38;100.00;63230.50;5030772;28;20577;-76
2021/06/12 03:18:52;;;;;;;8.60;7.70;;;;;;;-139.38;100.00;63230.50;5031893;28;20215;-76
2021/06/12 03:21:25;;;;;;;8.63;7.33;;;;;;;-139.38;100.00;63230.50;5032944;28;20678;-76
2021/06/12 03:23:52;;;;;;;8.20;7.40;;;;;;;-139.38;100.00;63230.50;5032008;28;20207;-76
2021/06/12 03:26:20;;;;;;;9.20;6.93;;;;;;;-139.38;100.00;63230.50;5031701;28;20613;-76
2021/06/12 03:28:47;;;;;;;12.40;7.77;;;;;;;-139.38;100.00;63230.50;5028340;28;20214;-76
2021/06/12 03:31:17;;;;;;;8.40;7.43;;;;;;;-139.38;100.00;63230.50;5031638;28;20284;-76
2021/06/12 03:33:44;;;;;;;8.70;7.77;;;;;;;-139.38;100.00;63230.50;5032093;28;20223;-76
2021/06/12 03:36:11;;;;;;;9.30;7.80;;;;;;;-139.38;100.00;63230.50;5031790;28;20212;-76
2021/06/12 03:38:38;;;;;;;8.83;6.97;;;;;;;-139.38;100.00;63230.50;5031601;28;20680;-77
2021/06/12 03:41:05;;;;;;;8.50;7.27;;;;;;;-139.38;100.00;63230.50;5031587;28;20206;-76
2021/06/12 03:43:33;;;;;;;7.83;6.60;;;;;;;-139.38;100.00;63230.50;5032252;28;20232;-77
2021/06/12 03:46:01;;;;;;;8.57;7.23;;;;;;;-139.38;100.00;63230.50;5030890;28;20200;-76
2021/06/12 03:48:29;;;;;;;9.93;7.27;;;;;;;-139.38;100.00;63230.50;5031450;28;20205;-76
2021/06/12 03:50:57;;;;;;;8.73;7.33;;;;;;;-139.38;100.00;63230.50;5031264;28;20223;-76
2021/06/12 03:53:30;;;;;;;12.00;7.63;;;;;;;-139.38;100.00;63230.50;5031629;28;20230;-76
2021/06/12 03:55:58;;;;;;;8.40;7.50;;;;;;;-139.38;100.00;63230.50;5032432;28;20214;-77
2021/06/12 03:58:25;;;;;;;8.43;7.37;;;;;;;-139.38;100.00;63230.50;5027314;28;20242;-77
2021/06/12 04:00:51;;;;;;;9.63;7.00;;;;;;;-139.38;100.00;63230.50;5031206;28;20349;-77
2021/06/12 04:03:18;;;;;;;8.73;7.47;;;;;;;-139.38;100.00;63230.50;5031327;28;20622;-78
2021/06/12 04:05:46;;;;;;;8.47;7.30;;;;;;;-139.38;100.00;63230.50;5031317;28;20210;-77
2021/06/12 04:08:13;;;;;;;8.33;7.03;;;;;;;-139.38;100.00;63230.50;5030686;28;20216;-77
2021/06/12 04:10:40;;;;;;;8.27;7.10;;;;;;;-139.38;100.00;63230.50;5031118;28;20235;-76
2021/06/12 04:13:06;;;;;;;7.73;6.93;;;;;;;-139.38;100.00;63230.50;5029727;28;20836;-77
2021/06/12 04:15:33;;;;;;;9.73;7.80;;;;;;;-139.38;100.00;63230.50;5030958;28;20579;-77
2021/06/12 04:18:07;;;;;;;7.63;6.83;;;;;;;-139.38;100.00;63230.50;5031469;28;20277;-77
2021/06/12 04:20:35;;;;;;;7.40;6.57;;;;;;;-139.38;100.00;63230.50;5030322;28;20624;-77
2021/06/12 04:23:03;;;;;;;8.03;7.10;;;;;;;-139.38;100.00;63230.50;5031631;28;20243;-77
2021/06/12 04:25:30;;;;;;;8.03;6.93;;;;;;;-139.38;100.00;63230.50;5030783;28;20550;-77
2021/06/12 04:27:57;;;;;;;8.40;6.53;;;;;;;-139.38;100.00;63230.50;5031362;28;20302;-76
2021/06/12 04:30:24;;;;;;;7.60;6.70;;;;;;;-139.38;100.00;63230.50;5030139;28;20242;-76
2021/06/12 04:32:51;;;;;;;7.60;6.60;;;;;;;-139.38;100.00;63230.50;5030047;28;20238;-73
2021/06/12 04:35:18;;;;;;;8.27;6.40;;;;;;;-139.38;100.00;63230.50;5021997;28;20677;-78
2021/06/12 04:37:45;;;;;;;8.83;6.63;;;;;;;-139.38;100.00;63230.50;5031370;28;20264;-79
2021/06/12 04:40:14;;;;;;;6.80;6.10;;;;;;;-139.38;100.00;63230.50;5031671;28;20200;-79
2021/06/12 04:42:41;;;;;;;9.00;6.77;;;;;;;-139.38;100.00;63230.50;5029670;28;20232;-79
2021/06/12 04:45:09;;;;;;;7.30;5.93;;;;;;;-139.38;100.00;63230.50;5030830;28;20214;-79
2021/06/12 04:47:36;;;;;;;8.27;5.87;;;;;;;-139.38;100.00;63230.50;5031251;28;20209;-80
2021/06/12 04:50:05;;;;;;;7.33;5.93;;;;;;;-139.38;100.00;63230.50;5027360;28;20234;-78
2021/06/12 04:52:31;;;;;;;6.63;5.90;;;;;;;-139.38;100.00;63230.50;5042214;23;20647;-77
2021/06/12 04:54:58;;;;;;;7.20;6.03;;;;;;;-139.38;100.00;63230.50;5028488;28;20264;-79
2021/06/12 04:57:26;;;;;;;9.20;5.87;;;;;;;-139.38;100.00;63230.50;5032514;28;20206;-76
2021/06/12 04:59:53;;;;;;;7.87;6.17;;;;;;;-139.38;100.00;63230.50;5036875;28;20253;-79
2021/06/12 05:02:20;;;;;;;8.47;6.97;;;;;;;-139.38;100.00;63230.50;5036540;28;20229;-80
2021/06/12 05:04:47;;;;;;;8.83;7.10;;;;;;;-139.38;100.00;63230.50;5033662;28;20217;-74
2021/06/12 05:07:14;;;;;;;8.23;6.40;;;;;;;-139.38;100.00;63230.50;5033878;28;20659;-80
2021/06/12 05:09:40;;;;;;;9.03;7.27;;;;;;;-139.38;100.00;63230.50;5034540;28;20203;-81
2021/06/12 05:12:08;;;;;;;7.87;6.30;;;;;;;-139.38;100.00;63230.50;5035573;28;20223;-73
2021/06/12 05:14:39;;;;;;;10.10;7.03;;;;;;;-139.38;100.00;63230.50;5030926;28;20213;-73
2021/06/12 05:17:08;;;;;;;7.30;6.43;;;;;;;-139.38;100.00;63230.50;5031272;28;20195;-77
2021/06/12 05:19:35;;;;;;;8.47;7.10;;;;;;;-139.38;100.00;63230.50;5028544;28;20659;-74
2021/06/12 05:22:02;;;;;;;9.00;6.97;;;;;;;-139.38;100.00;63230.50;5030079;28;20223;-76
2021/06/12 05:24:29;;;;;;;8.97;7.50;;;;;;;-139.38;100.00;63230.50;5030866;28;20210;-73
2021/06/12 05:26:56;;;;;;;11.63;7.57;;;;;;;-139.38;100.00;63230.50;5028405;28;20238;-74
2021/06/12 05:29:23;;;;;;;8.63;7.60;;;;;;;-139.38;100.00;63230.50;5030934;28;20198;-74
2021/06/12 05:31:51;;;;;;;8.97;6.93;;;;;;;-139.38;100.00;63230.50;5031562;28;20246;-74
2021/06/12 05:34:17;;;;;;;8.33;7.43;;;;;;;-139.38;100.00;63230.50;5030921;28;20203;-74
2021/06/12 05:36:44;;;;;;;9.03;7.43;;;;;;;-139.38;100.00;63230.50;5030031;28;20221;-74
2021/06/12 05:39:11;;;;;;;7.70;7.00;;;;;;;-139.38;100.00;63230.50;5029670;28;20214;-71
2021/06/12 05:41:39;;;;;;;9.60;7.30;;;;;;;-139.38;100.00;63230.50;5030985;28;20702;-73
2021/06/12 05:44:06;;;;;;;10.37;7.73;;;;;;;-139.38;100.00;63230.50;5036297;28;20222;-73
2021/06/12 05:46:32;;;;;;;9.50;7.27;;;;;;;-139.38;100.00;63230.50;5045001;28;20201;-75
2021/06/12 05:49:01;;;;;;;10.00;7.60;;;;;;;-139.38;100.00;63230.50;5049780;28;20205;-74
2021/06/12 05:51:28;;;;;;;11.17;7.27;;;;;;;-139.38;100.00;63230.50;5048974;28;20229;-74
2021/06/12 05:53:55;;;;;;;8.93;7.53;;;;;;;-139.38;100.00;63230.50;5046261;28;20213;-73
2021/06/12 05:56:22;;;;;;;8.83;7.17;;;;;;;-139.38;100.00;63230.50;5046690;28;20864;-73
2021/06/12 05:58:49;;;;;;;7.43;6.73;;;;;;;-139.38;100.00;63230.50;5052624;28;20203;-75
2021/06/12 06:01:16;;;;;;;7.80;6.90;;;;;;;-139.38;100.00;63230.50;5047853;28;20226;-72
2021/06/12 06:03:43;;;;;;;9.13;7.53;;;;;;;-139.38;100.00;63230.50;5051478;28;20209;-76
2021/06/12 06:06:11;;;;;;;7.67;6.27;;;;;;;-139.38;100.00;63230.50;5049981;28;20264;-71
2021/06/12 06:08:38;;;;;;;7.73;6.03;;;;;;;-139.38;100.00;63230.50;5055310;28;20202;-75
2021/06/12 06:11:04;;;;;;;7.77;6.27;;;;;;;-139.38;100.00;63230.50;5050148;28;20234;-73
2021/06/12 06:13:37;;;;;;;8.60;6.43;;;;;;;-139.38;100.00;63230.50;5044156;28;20256;-77
2021/06/12 06:16:05;;;;;;;7.20;6.23;;;;;;;-139.38;100.00;63230.50;5044326;28;20191;-74
2021/06/12 06:18:31;;;;;;;7.87;6.17;;;;;;;-139.38;100.00;63230.50;5054381;28;20670;-81
2021/06/12 06:20:59;;;;;;;7.70;6.87;;;;;;;-139.38;100.00;63230.50;5059266;28;20616;-81
2021/06/12 06:23:27;;;;;;;7.20;6.33;;;;;;;-139.38;100.00;63230.50;5050283;28;20644;-78
2021/06/12 06:25:54;;;;;;;7.27;5.90;;;;;;;-139.38;100.00;63230.50;5053332;28;20250;-77
2021/06/12 06:28:21;;;;;;;7.13;5.93;;;;;;;-139.38;100.00;63230.50;5060111;28;20208;-83
2021/06/12 06:30:47;;;;;;;6.00;5.40;;;;;;;-139.38;100.00;63230.50;5060289;28;20233;-78
2021/06/12 06:33:14;;;;;;;7.93;6.00;;;;;;;-139.38;100.00;63230.50;5059091;28;20259;-78
2021/06/12 06:35:41;;;;;;;7.27;6.00;;;;;;;-139.38;100.00;63230.50;5057404;28;20675;-76
2021/06/12 06:38:08;;;;;;;7.43;6.03;;;;;;;-139.38;100.00;63230.50;5045950;28;20206;-76
2021/06/12 06:40:36;;;;;;;12.33;6.27;;;;;;;-139.38;100.00;63230.50;5054610;28;20261;-77
2021/06/12 06:43:03;;;;;;;7.00;5.50;;;;;;;-139.38;100.00;63230.50;5053427;28;20268;-77
2021/06/12 06:45:30;;;;;;;9.13;5.40;;;;;;;-139.38;100.00;63230.50;5044493;28;20203;-75
2021/06/12 06:47:56;;;;;;;7.23;5.70;;;;;;;-139.38;100.00;63230.50;5053121;28;20207;-76
2021/06/12 06:50:23;;;;;;;6.53;5.93;;;;;;;-139.38;100.00;63230.50;5059909;28;20587;-75
2021/06/12 06:52:50;;;;;;;7.10;5.67;;;;;;;-139.38;100.00;63230.50;5052667;28;20228;-72
2021/06/12 06:55:18;;;;;;;6.33;4.87;;;;;;;-139.38;100.00;63230.50;5053564;28;20215;-77
2021/06/12 06:57:47;;;;;;;8.27;5.00;;;;;;;-139.38;100.00;63230.50;5065595;28;20252;-80
2021/06/12 07:00:15;;;;;;;10.55;5.10;;;;;;;-139.38;100.00;63230.50;5051698;28;20257;-79
2021/06/12 07:02:42;;;;;;;7.20;5.07;;;;;;;-139.38;100.00;63230.50;5030778;28;20699;-75
2021/06/12 07:05:10;;;;;;;5.07;4.57;;;;;;;-139.38;100.00;63230.50;5050014;28;20314;-81
2021/06/12 07:07:38;;;;;;;7.60;4.50;;;;;;;-139.38;100.00;63230.50;5048171;28;20237;-78
2021/06/12 07:10:06;;;;;;;6.50;5.35;;;;;;;-139.38;100.00;63230.50;5052234;28;20202;-79
2021/06/12 07:12:33;;;;;;;8.40;5.40;;;;;;;-139.38;100.00;63230.50;5056247;28;20239;-76
2021/06/12 07:15:01;;;;;;;7.95;5.68;;;;;;;-139.38;100.00;63230.50;5054513;28;20226;-75
2021/06/12 07:17:28;;;;;;;8.55;5.40;;;;;;;-139.38;100.00;63230.50;5051329;28;20688;-76
2021/06/12 07:19:55;;;;;;;8.93;5.30;;;;;;;-139.38;100.00;63230.50;5051330;28;20623;-79
2021/06/12 07:22:22;;;;;;;7.28;4.85;;;;;;;-139.38;100.00;63230.50;5053040;28;20225;-78
2021/06/12 07:24:49;;;;;;;8.13;5.25;;;;;;;-139.38;100.00;63230.50;5047041;28;20673;-78
2021/06/12 07:27:16;;;;;;;4.70;4.30;;;;;;;-139.38;100.00;63230.50;5052355;28;20194;-78
2021/06/12 07:29:43;;;;;;;6.70;4.13;;;;;;;-139.38;100.00;63230.50;5054877;28;20205;-80
2021/06/12 07:32:11;;;;;;;5.68;3.78;;;;;;;-139.38;100.00;63230.50;5052273;28;20226;-77
2021/06/12 07:34:38;;;;;;;6.80;4.00;;;;;;;-139.38;100.00;63230.50;5058399;28;20209;-80
2021/06/12 07:37:05;;;;;;;4.30;3.80;;;;;;;-139.38;100.00;63230.50;5055770;28;20195;-82
2021/06/12 07:39:32;;;;;;;4.72;4.22;;;;;;;-139.38;100.00;63230.50;5053188;28;20237;-79
2021/06/12 07:41:59;;;;;;;4.38;3.97;;;;;;;-139.38;100.00;63230.50;5056868;28;20262;-79
2021/06/12 07:44:26;;;;;;;6.38;4.00;;;;;;;-139.38;100.00;63230.50;5050251;28;20202;-81
2021/06/12 07:46:53;;;;;;;7.43;3.85;;;;;;;-139.38;100.00;63230.50;5060037;28;20261;-80
2021/06/12 07:49:21;;;;;;;5.28;3.90;;;;;;;-139.38;100.00;63230.50;5055913;28;20194;-79
2021/06/12 07:51:48;;;;;;;3.92;3.50;;;;;;;-139.38;100.00;63230.50;5053693;28;20702;-79
2021/06/12 07:54:14;;;;;;;6.53;3.95;;;;;;;-139.38;100.00;63230.50;5052596;28;20209;-81
2021/06/12 07:56:41;;;;;;;3.42;2.28;;;;;;;-139.38;100.00;63230.50;5048915;28;20229;-81
2021/06/12 07:59:08;;;;;;;2.78;2.50;;;;;;;-139.38;100.00;63230.50;5052019;28;20210;-70
2021/06/12 08:01:35;;;;;;;3.05;2.58;;;;;;;-139.38;100.00;63230.50;5051983;28;20225;-80
2021/06/12 08:04:02;;;;;;;3.22;2.78;;;;;;;-139.38;100.00;63230.50;5053517;28;20232;-83
2021/06/12 08:06:30;;;;;;;4.45;3.28;;;;;;;-139.38;100.00;63230.50;5053294;28;20207;-77
2021/06/12 08:08:57;;;;;;;3.90;3.38;;;;;;;-139.38;100.00;63230.50;5049977;28;20225;-76
2021/06/12 08:11:24;;;;;;;3.95;2.75;;;;;;;-139.38;100.00;63230.50;5048988;28;20237;-80
2021/06/12 08:13:51;;;;;;;2.20;2.00;;;;;;;-139.38;100.00;63230.50;5068267;28;20205;-70
2021/06/12 08:16:18;;;;;;;2.72;2.35;;;;;;;-139.38;100.00;63230.50;5054811;28;20344;-74
2021/06/12 08:18:44;;;;;;;3.67;2.28;;;;;;;-139.38;100.00;63230.50;5062102;28;20229;-71
2021/06/12 08:21:11;;;;;;;4.05;2.70;;;;;;;-139.38;100.00;63230.50;5051563;28;20222;-72
2021/06/12 08:23:39;;;;;;;4.70;2.75;;;;;;;-139.38;100.00;63230.50;5051454;28;20200;-72
2021/06/12 08:26:06;;;;;;;4.25;2.80;;;;;;;-139.38;100.00;63230.50;5050863;28;20211;-73
2021/06/12 08:28:33;;;;;;;3.65;2.92;;;;;;;-139.38;100.00;63230.50;5052062;28;20208;-78
2021/06/12 08:31:00;;;;;;;7.32;3.00;;;;;;;-139.38;100.00;63230.50;5050334;28;20228;-70
2021/06/12 08:33:27;;;;;;;3.28;2.97;;;;;;;-139.38;100.00;63230.50;5045658;28;20802;-72
2021/06/12 08:35:54;;;;;;;3.08;2.78;;;;;;;-139.38;100.00;63230.50;5049070;28;21786;-70
2021/06/12 08:38:20;;;;;;;3.75;3.15;;;;;;;-139.38;100.00;63230.50;5045910;28;20275;-70
2021/06/12 08:40:50;;;;;;;3.42;3.03;;;;;;;-139.38;100.00;63230.50;5049308;28;20210;-70
2021/06/12 08:43:24;;;;;;;4.75;3.30;;;;;;;-139.38;100.00;63230.50;5043510;28;20255;-67
2021/06/12 08:46:50;;;;;;;5.90;3.47;;;;;;;-139.38;100.00;63230.50;5045371;28;20208;-70
2021/06/12 08:50:16;;;;;;;4.43;4.00;;;;;;;-139.38;100.00;63230.50;5050766;28;20216;-70
2021/06/12 08:53:41;;;;;;;4.10;3.70;;;26.00;1.00;;;-139.38;100.00;63230.50;5050477;28;20248;-85
2021/06/12 08:57:08;;;;;;;4.78;3.70;;;25.80;1.00;;;-139.38;100.00;63230.50;5052276;28;20202;-77
2021/06/12 09:00:33;;;;;;;4.00;3.60;;;26.00;1.00;;;-139.38;100.00;63230.50;5048790;28;20205;-77
2021/06/12 09:04:25;;;;;;;3.47;3.17;;;25.70;1.00;;;-139.38;100.00;63230.50;5043640;28;20588;-76
2021/06/12 09:08:20;;;;;;;3.85;3.13;;;25.30;1.00;;;-139.38;100.00;63230.50;5042774;28;20186;-78
2021/06/12 09:11:55;;;;;;;4.38;3.20;;;25.60;1.00;;;-139.38;100.00;63230.50;5054675;28;20259;-81
2021/06/12 09:15:20;;;;;;;3.67;3.00;;;25.80;1.00;;;-139.38;100.00;63230.50;5046212;28;20662;-78
2021/06/12 09:18:47;;;;;;;5.28;2.78;;;25.40;1.00;;;-139.38;100.00;63230.50;5042281;28;20207;-78
2021/06/12 09:22:27;;;;;;;5.25;2.20;;;25.50;1.00;;;-139.38;100.00;63230.50;5048937;28;20231;-79
2021/06/12 09:25:52;;;;;;;3.10;1.73;;;25.70;1.00;;;-139.38;100.00;63230.50;5055702;28;20217;-79
2021/06/12 09:29:19;;;;;;;3.40;1.92;;;25.70;1.00;;;-139.38;100.00;63230.50;5049881;28;20260;-80
2021/06/12 09:32:47;;;;;;;3.08;2.05;;;25.60;1.00;;;-139.38;100.00;63230.50;5055753;28;20238;-78
2021/06/12 09:36:12;;;;;;;2.85;1.65;;;25.70;1.00;;;-139.38;100.00;63230.50;5051996;28;20202;-78
2021/06/12 09:39:38;;;;;;;2.38;1.80;;;25.60;1.00;;;-139.38;100.00;63230.50;5052301;28;20206;-78
2021/06/12 09:43:04;;;;;;;1.88;1.73;;;25.60;1.00;;;-139.38;100.00;63230.50;5043017;28;20245;-79
2021/06/12 09:46:33;;;;;;;2.17;1.80;;;25.60;1.00;;;-139.38;100.00;63230.50;5047435;28;20581;-81
2021/06/12 09:49:59;;;;;;;6.15;2.10;;;25.80;1.00;;;-139.38;100.00;63230.50;5064454;28;21113;-78
2021/06/12 09:53:37;;;;;;;4.00;1.70;;;25.90;1.00;;;-139.38;100.00;63230.50;5062686;28;20223;-80
2021/06/12 09:57:10;;;;;;;3.10;1.58;;;26.00;1.00;;;-139.38;100.00;63230.50;5052284;28;20307;-77
2021/06/12 10:00:42;;;;;;;1.70;1.55;;;25.80;1.00;;;-139.38;100.00;63230.50;5054754;28;20209;-75
2021/06/12 10:04:17;;;;;;;2.10;1.90;;;26.10;1.00;;;-139.38;100.00;63230.50;5049947;28;20202;-76
2021/06/12 10:07:43;;;;;;;5.13;1.85;;;26.10;1.00;;;-139.38;100.00;63230.50;5052185;28;20210;-76
2021/06/12 10:11:10;;;;;;;3.85;2.00;;;26.00;1.00;;;-139.38;100.00;63230.50;5050822;28;20205;-78
2021/06/12 10:14:35;;;;;;;3.22;2.10;;;26.20;1.00;;;-139.38;100.00;63230.50;5038880;28;20267;-79
2021/06/12 10:18:02;;;;;;;3.55;1.60;;;;;;;-139.38;100.00;63230.50;5044835;28;20332;-75
2021/06/12 10:21:27;;;;;;;3.30;1.60;;;;;;;-139.38;100.00;63230.50;5042387;28;20207;-76
2021/06/12 10:24:53;;;;;;;2.08;1.70;;;;;;;-139.38;100.00;63230.50;5050920;28;20222;-76
2021/06/12 10:28:21;;;;;;;3.63;1.50;;;;;;;-139.38;100.00;63230.50;5051214;28;20206;-77
2021/06/12 10:31:46;;;;;;;3.50;1.80;;;;;;;-139.38;100.00;63230.50;5046311;28;20194;-78
2021/06/12 10:35:15;;;;;;;2.15;1.70;;;;;;;-139.38;100.00;63230.50;5047498;28;20668;-79
2021/06/12 10:39:00;;;;;;;2.90;1.85;;;;;;;-139.38;100.00;63230.50;5050609;28;20202;-75
2021/06/12 10:42:26;;;;;;;3.70;1.85;;;;;;;-139.38;100.00;63230.50;5047691;28;20226;-78
2021/06/12 10:46:07;;;;;;;2.50;1.98;;;;;;;-139.38;100.00;63230.50;5049127;28;20201;-79
2021/06/12 10:49:40;;;;;;;2.40;1.90;;;;;;;-139.38;100.00;63230.50;5046728;28;20225;-74
2021/06/12 10:53:19;;;;;;;2.38;1.90;;;;;;;-139.38;100.00;63230.50;5052672;28;20233;-75
2021/06/12 10:56:46;;;;;;;2.70;1.95;;;;;;;-139.38;100.00;63230.50;5039581;28;20202;-74
2021/06/12 11:00:12;;;;;;;2.28;1.85;;;;;;;-139.38;100.00;63230.50;5052468;28;20666;-75
2021/06/12 11:03:57;;;;;;;1.88;1.40;;;;;;;-139.38;100.00;63230.50;5048073;28;20229;-75
2021/06/12 11:07:43;;;;;;;4.45;1.90;;;;;;;-139.38;100.00;63230.50;5051837;28;20220;-79
2021/06/12 11:11:31;;;;;;;4.75;1.98;;;;;;;-139.38;100.00;63230.50;5053417;28;20209;-74
2021/06/12 11:15:12;;;;;;;2.63;1.70;;;;;;;-139.38;100.00;63230.50;5049433;28;20210;-75
2021/06/12 11:18:38;;;;;;;2.47;2.08;;;;;;;-139.38;100.00;63230.50;5053741;28;20289;-79
2021/06/12 11:22:24;;;;;;;4.72;2.25;;;;;;;-139.38;100.00;63230.50;5055289;28;20221;-81
2021/06/12 11:25:57;;;;;;;4.50;2.38;;;;;;;-139.38;100.00;63230.50;5048787;28;20624;-84
2021/06/12 11:29:23;;;;;;;3.70;2.20;;;;;;;-139.38;100.00;63230.50;5048937;28;20197;-85
2021/06/12 11:32:49;;;;;;;4.97;2.40;;;;;;;-139.38;100.00;63230.50;5056691;28;20230;-81
2021/06/12 11:36:29;;;;;;;4.43;2.53;;;;;;;-139.38;100.00;63230.50;5049744;28;20205;-78
2021/06/12 11:39:58;;;;;;;4.35;2.30;;;;;;;-139.38;100.00;63230.50;5049195;28;20205;-80
2021/06/12 11:43:31;;;;;;;3.40;1.85;;;;;;;-139.38;100.00;63230.50;5046661;28;20689;-79
2021/06/12 11:46:57;;;;;;;2.95;2.25;;;;;;;-139.38;100.00;63230.50;5044466;28;20239;-76
2021/06/12 11:50:26;;;;;;;4.43;1.80;;;;;;;-139.38;100.00;63230.50;5053100;28;20298;-77
2021/06/12 11:54:10;;;;;;;5.43;2.00;;;;;;;-139.38;100.00;63230.50;5048912;28;20290;-80
2021/06/12 11:57:40;;;;;;;4.82;2.15;;;;;;;-139.38;100.00;63230.50;5044551;28;20223;-75
2021/06/12 12:01:34;;;;;;;2.35;2.15;;;;;;;-139.38;100.00;63230.50;5046982;28;20667;-74
2021/06/12 12:05:02;;;;;;;2.58;1.40;;;;;;;-139.38;100.00;63230.50;5052360;28;20268;-78